Time;durP1;ratioP1;P1;durP2;ratioP2;P2;SDS_P1;SDS_P2;PMS_P1;PMS_P2;Temp;Humidity;BMP_temperature;BMP_pressure;BME280_temperature;BME280_humidity;BME280_pressure;Samples;Min_cycle;Max_cycle;Signal;HPM_P1;HPM_P2
2023/05/11 00:01:54;;;;;;;5.28;0.30;;;;;;;15.17;78.51;101005.59;7355847;19;20098;-65
2023/05/11 00:04:24;;;;;;;4.25;0.40;;;;;;;15.15;78.34;100999.63;7356718;19;20443;-65
2023/05/11 00:06:53;;;;;;;4.20;0.38;;;;;;;15.13;78.28;100999.00;7361248;19;20053;-64
2023/05/11 00:09:21;;;;;;;4.07;0.40;;;;;;;15.10;78.14;100991.38;7361011;19;20443;-64
2023/05/11 00:11:48;;;;;;;3.83;0.30;;;;;;;15.04;77.28;100998.22;7363326;19;20014;-64
2023/05/11 00:14:15;;;;;;;3.78;0.30;;;;;;;15.03;77.28;100993.94;7360096;19;20066;-64
2023/05/11 00:16:42;;;;;;;2.65;0.35;;;;;;;15.03;77.29;100995.75;7356777;19;21637;-64
2023/05/11 00:19:10;;;;;;;2.40;0.30;;;;;;;15.01;77.15;101003.88;7362511;19;20102;-64
2023/05/11 00:21:37;;;;;;;4.18;0.30;;;;;;;14.96;76.68;100993.81;7360539;19;20018;-65
2023/05/11 00:24:05;;;;;;;1.48;0.20;;;;;;;14.94;76.62;100989.69;7361809;19;20037;-65
2023/05/11 00:26:33;;;;;;;3.53;0.30;;;;;;;14.92;76.64;100989.03;7362571;19;21071;-64
2023/05/11 00:29:00;;;;;;;6.03;1.48;;;;;;;14.90;77.24;100986.56;7359444;19;20022;-64
2023/05/11 00:31:27;;;;;;;1.40;0.38;;;;;;;14.89;77.54;100995.50;7355761;19;20512;-64
2023/05/11 00:33:56;;;;;;;2.35;0.30;;;;;;;14.91;77.84;100998.81;7359396;19;21763;-64
2023/05/11 00:36:23;;;;;;;5.13;0.40;;;;;;;14.90;77.01;100998.97;7359923;19;20020;-64
2023/05/11 00:38:51;;;;;;;4.10;0.30;;;;;;;14.85;77.33;100991.56;7359189;19;20014;-65
2023/05/11 00:41:20;;;;;;;3.42;0.20;;;;;;;14.81;77.16;100998.22;7356147;19;20116;-64
2023/05/11 00:43:47;;;;;;;2.53;0.30;;;;;;;14.75;77.29;100992.81;7356293;19;20003;-64
2023/05/11 00:46:14;;;;;;;3.38;0.30;;;;;;;14.74;78.37;100994.63;7356858;19;20141;-64
2023/05/11 00:48:43;;;;;;;3.90;0.45;;;;;;;14.72;78.29;100993.16;7357224;19;20113;-64
2023/05/11 00:51:11;;;;;;;6.15;0.40;;;;;;;14.70;77.91;100990.69;7356590;19;20038;-64
2023/05/11 00:53:39;;;;;;;2.38;0.25;;;;;;;14.69;78.79;101004.09;7358287;19;20347;-64
2023/05/11 00:56:07;;;;;;;4.38;0.57;;;;;;;14.67;78.49;100999.00;7361395;19;20127;-64
2023/05/11 00:58:35;;;;;;;5.82;0.38;;;;;;;14.66;78.80;100999.97;7360771;19;20018;-65
2023/05/11 01:01:02;;;;;;;7.18;0.40;;;;;;;14.66;79.21;101001.81;7353078;19;20030;-65
2023/05/11 01:03:31;;;;;;;5.57;0.40;;;;;;;14.64;79.57;100998.50;7360690;19;20570;-65
2023/05/11 01:06:06;;;;;;;1.67;0.20;;;;;;;14.61;79.03;101001.50;7357492;19;20532;-63
2023/05/11 01:08:46;;;;;;;7.32;0.30;;;;;;;14.58;79.26;101007.16;7358307;19;21590;-64
2023/05/11 01:11:25;;;;;;;4.72;0.30;;;;;;;14.51;79.47;101007.84;7358814;19;20848;-65
2023/05/11 01:13:58;;;;;;;1.90;0.45;;;;;;;14.49;79.70;101004.53;7357476;19;20074;-65
2023/05/11 01:16:30;;;;;;;4.57;0.40;;;;;;;14.49;79.54;101006.34;7355332;19;20014;-66
2023/05/11 01:19:17;;;;;;;5.68;0.40;;;;;;;14.46;80.44;101004.91;7358277;19;20748;-65
2023/05/11 01:21:49;;;;;;;5.30;0.88;;;;;;;14.47;80.80;101011.84;7356412;19;20408;-64
2023/05/11 01:24:30;;;;;;;1.50;0.20;;;;;;;14.47;81.08;101003.91;7358133;19;20019;-64
2023/05/11 01:27:08;;;;;;;6.07;0.30;;;;;;;14.41;80.94;101006.41;7359890;19;20037;-63
2023/05/11 01:29:48;;;;;;;2.47;0.50;;;;;;;14.34;81.93;101003.59;7360111;19;20010;-67
2023/05/11 01:32:19;;;;;;;4.32;0.40;;;;;;;14.30;82.33;101007.59;7363535;19;20107;-64
2023/05/11 01:34:56;;;;;;;3.30;0.30;;;;;;;14.33;83.28;101012.53;7364035;19;20150;-65
2023/05/11 01:37:25;;;;;;;3.30;0.40;;;;;;;14.31;82.92;101013.72;7368206;19;20043;-64
2023/05/11 01:39:57;;;;;;;7.07;0.45;;;;;;;14.27;82.81;101012.41;7362783;19;20037;-64
2023/05/11 01:42:34;;;;;;;1.83;0.30;;;;;;;14.24;82.37;101015.38;7364788;19;20022;-64
2023/05/11 01:45:05;;;;;;;3.88;0.40;;;;;;;14.18;82.10;101018.72;7357857;19;20981;-65
2023/05/11 01:47:34;;;;;;;4.57;0.40;;;;;;;14.13;82.71;101022.69;7363383;19;20099;-64
2023/05/11 01:50:05;;;;;;;7.15;0.35;;;;;;;14.12;83.96;101020.22;7365818;19;20070;-65
2023/05/11 01:52:36;;;;;;;4.53;0.45;;;;;;;14.08;83.79;101024.22;7364604;19;20019;-64
2023/05/11 01:55:05;;;;;;;2.72;0.30;;;;;;;14.04;83.47;101028.19;7365394;19;20371;-64
2023/05/11 01:57:37;;;;;;;3.65;1.45;;;;;;;13.99;83.54;101022.59;7363076;19;20014;-65
2023/05/11 02:00:06;;;;;;;4.95;1.10;;;;;;;13.98;84.24;101026.22;7362557;19;20675;-65
2023/05/11 02:02:35;;;;;;;3.97;0.40;;;;;;;13.99;84.96;101019.94;7362643;19;20014;-66
2023/05/11 02:05:06;;;;;;;1.77;0.40;;;;;;;13.98;84.32;101031.50;7364269;19;21243;-64
2023/05/11 02:07:35;;;;;;;2.40;0.60;;;;;;;13.96;84.92;101020.28;7365263;19;20014;-64
2023/05/11 02:10:03;;;;;;;3.25;0.40;;;;;;;13.96;84.84;101034.34;7365527;19;20030;-64
2023/05/11 02:12:32;;;;;;;4.10;0.50;;;;;;;13.95;84.35;101037.16;7364790;19;20371;-64
2023/05/11 02:15:02;;;;;;;6.35;0.40;;;;;;;13.93;84.68;101036.50;7357197;19;20038;-65
2023/05/11 02:17:32;;;;;;;4.65;0.40;;;;;;;13.92;84.81;101029.53;7362601;19;20018;-64
2023/05/11 02:20:03;;;;;;;5.93;0.38;;;;;;;13.90;84.98;101034.19;7363167;19;20054;-65
2023/05/11 02:22:32;;;;;;;7.38;0.55;;;;;;;13.90;85.88;101032.38;7363632;19;20086;-65
2023/05/11 02:24:59;;;;;;;6.65;0.40;;;;;;;13.88;85.28;101047.59;7360657;19;20086;-65
2023/05/11 02:27:27;;;;;;;8.30;0.50;;;;;;;13.88;85.30;101042.28;7366383;19;20458;-65
2023/05/11 02:29:54;;;;;;;4.15;0.50;;;;;;;13.89;85.17;101033.38;7361972;19;20018;-64
2023/05/11 02:32:23;;;;;;;6.97;0.63;;;;;;;13.90;85.02;101048.25;7363783;19;20019;-64
2023/05/11 02:35:00;;;;;;;4.05;0.32;;;;;;;13.88;85.29;101047.59;7364138;19;20713;-66
2023/05/11 02:37:29;;;;;;;3.03;0.40;;;;;;;13.91;85.70;101034.03;7364321;19;20054;-65
2023/05/11 02:40:00;;;;;;;2.95;0.50;;;;;;;13.94;85.80;101036.34;7360068;19;20022;-64
2023/05/11 02:42:29;;;;;;;3.15;0.50;;;;;;;13.97;85.20;101033.34;7361746;19;20030;-65
2023/05/11 02:45:02;;;;;;;6.35;0.93;;;;;;;13.97;85.01;101041.28;7357771;19;20455;-64
2023/05/11 02:47:35;;;;;;;3.30;0.40;;;;;;;13.93;84.72;101044.44;7358746;19;20045;-65
2023/05/11 02:50:05;;;;;;;5.70;0.65;;;;;;;13.92;85.24;101045.41;7362475;19;20022;-65
2023/05/11 02:52:37;;;;;;;4.25;0.50;;;;;;;13.90;85.21;101047.41;7361706;19;20044;-64
2023/05/11 02:55:07;;;;;;;6.72;0.57;;;;;;;13.94;85.80;101048.72;7361409;19;20023;-63
2023/05/11 02:57:34;;;;;;;6.18;0.30;;;;;;;13.96;85.59;101057.34;7365426;19;20018;-65
2023/05/11 03:00:04;;;;;;;5.40;0.40;;;;;;;13.95;85.60;101042.44;7358517;19;20034;-64
2023/05/11 03:02:31;;;;;;;3.80;0.60;;;;;;;13.91;85.26;101049.91;7362576;19;20014;-63
2023/05/11 03:04:59;;;;;;;9.85;0.70;;;;;;;13.87;84.85;101055.69;7363188;19;20936;-64
2023/05/11 03:07:26;;;;;;;2.63;0.52;;;;;;;13.81;85.15;101043.97;7363649;19;20010;-64
2023/05/11 03:09:54;;;;;;;2.90;0.40;;;;;;;13.82;86.54;101052.72;7363129;19;20018;-65
2023/05/11 03:12:22;;;;;;;7.97;0.60;;;;;;;13.82;86.12;101050.91;7364722;19;20018;-65
2023/05/11 03:14:50;;;;;;;7.63;0.70;;;;;;;13.83;85.86;101046.44;7358414;19;20010;-65
2023/05/11 03:17:20;;;;;;;6.72;0.55;;;;;;;13.83;86.03;101047.25;7360683;19;20022;-64
2023/05/11 03:19:48;;;;;;;7.47;0.52;;;;;;;13.81;86.08;101045.78;7361344;19;20031;-64
2023/05/11 03:22:15;;;;;;;2.28;0.50;;;;;;;13.83;86.33;101049.91;7361315;19;20019;-64
2023/05/11 03:24:43;;;;;;;6.32;0.57;;;;;;;13.86;87.34;101048.75;7359544;19;20013;-65
2023/05/11 03:27:11;;;;;;;2.65;0.60;;;;;;;13.86;87.49;101049.59;7363548;19;20010;-66
2023/05/11 03:29:41;;;;;;;11.68;1.05;;;;;;;13.81;86.75;101045.78;7358702;19;20022;-64
2023/05/11 03:32:09;;;;;;;9.15;0.70;;;;;;;13.77;86.47;101052.38;7360458;19;20459;-63
2023/05/11 03:34:36;;;;;;;5.43;0.40;;;;;;;13.74;86.56;101042.16;7360117;19;20011;-64
2023/05/11 03:37:05;;;;;;;4.15;0.50;;;;;;;13.72;86.41;101042.31;7363622;19;20014;-65
2023/05/11 03:39:35;;;;;;;3.78;0.52;;;;;;;13.69;86.64;101042.66;7360855;19;20006;-64
2023/05/11 03:42:04;;;;;;;4.78;0.60;;;;;;;13.61;86.92;101035.56;7363978;19;20041;-63
2023/05/11 03:44:33;;;;;;;4.80;0.57;;;;;;;13.60;87.40;101039.22;7359520;19;20114;-66
2023/05/11 03:47:03;;;;;;;4.47;0.75;;;;;;;13.59;87.59;101042.03;7360264;19;20025;-65
2023/05/11 03:49:31;;;;;;;8.80;0.75;;;;;;;13.58;87.28;101040.34;7361530;19;20014;-64
2023/05/11 03:51:58;;;;;;;9.20;0.40;;;;;;;13.59;87.26;101039.38;7360935;19;20753;-64
2023/05/11 03:54:26;;;;;;;6.30;0.60;;;;;;;13.55;86.80;101040.69;7358957;19;20115;-63
2023/05/11 03:56:53;;;;;;;6.20;0.70;;;;;;;13.53;88.12;101045.31;7361594;19;20021;-65
2023/05/11 03:59:21;;;;;;;8.05;0.65;;;;;;;13.53;88.02;101040.03;7360384;19;20037;-64
2023/05/11 04:01:51;;;;;;;4.80;0.50;;;;;;;13.56;88.42;101040.50;7357874;19;20045;-64
2023/05/11 04:04:20;;;;;;;8.02;0.50;;;;;;;13.59;88.69;101040.19;7358037;19;20037;-63
2023/05/11 04:06:47;;;;;;;4.32;0.60;;;;;;;13.60;88.41;101039.22;7360267;19;20010;-65
2023/05/11 04:09:15;;;;;;;7.80;0.60;;;;;;;13.58;88.18;101041.19;7363269;19;20601;-65
2023/05/11 04:11:42;;;;;;;8.57;0.60;;;;;;;13.57;88.27;101039.53;7361334;19;20016;-65
2023/05/11 04:14:10;;;;;;;8.50;0.95;;;;;;;13.60;88.58;101044.50;7361089;19;20138;-64
2023/05/11 04:16:37;;;;;;;7.82;0.65;;;;;;;13.61;88.67;101045.34;7359016;19;20026;-64
2023/05/11 04:19:06;;;;;;;8.48;0.80;;;;;;;13.62;88.63;101046.97;7362016;19;20018;-64
2023/05/11 04:21:35;;;;;;;9.63;0.70;;;;;;;13.57;88.62;101044.81;7359895;19;20046;-64
2023/05/11 04:24:03;;;;;;;6.50;0.77;;;;;;;13.53;88.67;101040.88;7358754;19;20058;-64
2023/05/11 04:26:30;;;;;;;6.93;0.63;;;;;;;13.55;88.95;101046.00;7360861;19;20046;-64
2023/05/11 04:28:58;;;;;;;4.43;0.55;;;;;;;13.56;89.64;101043.16;7361192;19;20022;-64
2023/05/11 04:31:25;;;;;;;5.15;0.57;;;;;;;13.59;89.89;101052.59;7358368;19;20461;-64
2023/05/11 04:33:53;;;;;;;8.35;1.02;;;;;;;13.60;89.02;101049.78;7359455;19;20019;-66
2023/05/11 04:36:21;;;;;;;6.90;0.82;;;;;;;13.58;88.69;101053.56;7358860;19;20019;-65
2023/05/11 04:38:48;;;;;;;9.48;1.15;;;;;;;13.57;88.87;101046.63;7360150;19;20429;-65
2023/05/11 04:41:15;;;;;;;6.72;1.00;;;;;;;13.59;88.91;101045.50;7357078;19;20010;-65
2023/05/11 04:43:43;;;;;;;6.38;0.88;;;;;;;13.62;89.27;101049.59;7359803;19;20014;-64
2023/05/11 04:46:10;;;;;;;6.25;0.50;;;;;;;13.63;89.25;101049.44;7357594;19;20038;-64
2023/05/11 04:48:38;;;;;;;11.63;0.70;;;;;;;13.63;88.93;101053.91;7361928;19;20027;-66
2023/05/11 04:51:05;;;;;;;7.90;0.70;;;;;;;13.62;89.11;101053.06;7356579;19;20046;-65
2023/05/11 04:53:33;;;;;;;8.85;0.50;;;;;;;13.63;89.34;101056.53;7361843;19;20693;-63
2023/05/11 04:56:00;;;;;;;8.55;0.70;;;;;;;13.64;89.37;101050.28;7359798;19;20061;-65
2023/05/11 04:58:27;;;;;;;10.48;0.73;;;;;;;13.68;89.29;101055.06;7359263;19;20549;-65
2023/05/11 05:00:54;;;;;;;6.18;0.80;;;;;;;13.70;90.07;101050.44;7356164;19;20022;-66
2023/05/11 05:03:22;;;;;;;7.90;0.90;;;;;;;13.71;89.10;101054.72;7361495;19;20721;-65
2023/05/11 05:05:50;;;;;;;8.68;0.70;;;;;;;13.73;88.53;101057.19;7366661;19;21701;-65
2023/05/11 05:08:17;;;;;;;10.50;1.00;;;;;;;13.74;88.53;101058.84;7367537;19;20414;-65
2023/05/11 05:10:46;;;;;;;7.28;0.70;;;;;;;13.71;88.21;101061.84;7367196;19;20014;-64
2023/05/11 05:13:15;;;;;;;8.02;1.23;;;;;;;13.72;88.40;101060.81;7366030;19;20015;-66
2023/05/11 05:15:43;;;;;;;7.65;0.90;;;;;;;13.75;88.89;101067.63;7361529;19;20018;-65
2023/05/11 05:18:10;;;;;;;10.70;1.20;;;;;;;13.75;89.05;101068.44;7365009;19;21151;-64
2023/05/11 05:20:38;;;;;;;13.57;1.58;;;;;;;13.81;88.90;101066.94;7363352;19;20775;-65
2023/05/11 05:23:05;;;;;;;12.60;2.35;;;;;;;13.86;88.80;101070.75;7367016;19;20018;-65
2023/05/11 05:25:33;;;;;;;12.85;1.60;;;;;;;13.91;88.21;101075.53;7366319;19;20021;-64
2023/05/11 05:28:00;;;;;;;5.80;0.80;;;;;;;13.93;87.89;101078.81;7365939;19;20034;-64
2023/05/11 05:30:27;;;;;;;10.57;1.27;;;;;;;13.95;87.65;101079.50;7364684;19;20684;-65
2023/05/11 05:32:55;;;;;;;5.70;0.93;;;;;;;13.96;87.12;101086.44;7368444;19;20497;-64
2023/05/11 05:35:22;;;;;;;11.43;0.90;;;;;;;13.96;87.29;101081.97;7366428;19;20029;-64
2023/05/11 05:37:50;;;;;;;9.52;0.93;;;;;;;13.97;87.47;101088.91;7365324;19;20041;-66
2023/05/11 05:40:17;;;;;;;8.35;1.13;;;;;;;14.01;87.70;101089.41;7359720;19;20046;-64
2023/05/11 05:42:47;;;;;;;10.25;1.25;;;;;;;14.01;87.14;101092.88;7363880;19;20047;-64
2023/05/11 05:45:14;;;;;;;11.05;1.83;;;;;;;14.08;87.08;101090.34;7360995;19;20015;-64
2023/05/11 05:47:41;;;;;;;12.65;1.25;;;;;;;14.11;87.91;101093.50;7367590;19;20021;-64
2023/05/11 05:50:10;;;;;;;7.90;1.17;;;;;;;14.17;87.55;101093.84;7365951;19;20018;-64
2023/05/11 05:52:37;;;;;;;13.45;1.30;;;;;;;14.17;86.61;101097.28;7362667;19;20114;-65
2023/05/11 05:55:05;;;;;;;11.10;1.58;;;;;;;14.18;86.25;101098.94;7362040;19;20171;-64
2023/05/11 05:57:33;;;;;;;13.65;1.10;;;;;;;14.23;85.83;101095.78;7362991;19;20014;-65
2023/05/11 06:00:00;;;;;;;11.20;1.63;;;;;;;14.25;85.90;101097.28;7359113;19;20013;-65
2023/05/11 06:02:27;;;;;;;10.23;2.50;;;;;;;14.28;86.16;101096.09;7362001;19;20035;-65
2023/05/11 06:04:55;;;;;;;9.18;1.13;;;;;;;14.29;85.68;101101.22;7358798;19;20462;-65
2023/05/11 06:07:22;;;;;;;10.43;1.48;;;;;;;14.30;85.77;101102.06;7365467;19;20106;-65
2023/05/11 06:09:49;;;;;;;9.18;1.33;;;;;;;14.30;85.53;101099.41;7364216;19;20038;-65
2023/05/11 06:12:17;;;;;;;9.95;1.33;;;;;;;14.35;85.20;101097.06;7365243;19;20478;-64
2023/05/11 06:14:44;;;;;;;12.80;1.65;;;;;;;14.46;84.91;101100.22;7357177;19;20022;-66
2023/05/11 06:17:11;;;;;;;12.75;2.35;;;;;;;14.70;84.06;101106.41;7364748;19;20679;-65
2023/05/11 06:19:39;;;;;;;11.88;1.45;;;;;;;14.79;83.97;101105.34;7361806;19;20030;-64
2023/05/11 06:22:06;;;;;;;9.50;1.33;;;;;;;14.90;82.71;101110.28;7363608;19;20035;-66
2023/05/11 06:24:34;;;;;;;13.35;1.60;;;;;;;15.04;82.20;101108.69;7362141;19;20688;-65
2023/05/11 06:27:01;;;;;;;13.38;1.98;;;;;;;15.33;81.40;101114.16;7365241;19;20157;-65
2023/05/11 06:29:29;;;;;;;11.48;1.98;;;;;;;15.64;80.02;101114.13;7360321;19;20037;-66
2023/05/11 06:31:57;;;;;;;11.38;1.90;;;;;;;16.13;78.11;101109.16;7363080;19;21081;-66
2023/05/11 06:34:24;;;;;;;11.60;1.98;;;;;;;16.38;75.95;101115.88;7360566;19;20023;-66
2023/05/11 06:36:52;;;;;;;9.18;1.65;;;;;;;16.38;75.71;101110.56;7361624;19;20321;-66
2023/05/11 06:39:19;;;;;;;12.00;1.75;;;;;;;16.43;75.50;101118.78;7360546;19;20055;-69
2023/05/11 06:41:46;;;;;;;11.88;2.45;;;;;;;16.47;74.93;101114.75;7365632;19;20523;-67
2023/05/11 06:44:13;;;;;;;14.77;3.80;;;;;;;16.50;75.03;101106.44;7360975;19;20443;-65
2023/05/11 06:46:41;;;;;;;9.40;1.70;;;;;;;16.54;74.68;101117.50;7358999;19;20028;-64
2023/05/11 06:49:08;;;;;;;9.85;1.90;;;;;;;16.55;74.77;101121.81;7361194;19;20090;-65
2023/05/11 06:51:36;;;;;;;11.73;2.15;;;;;;;16.55;74.74;101121.81;7361731;19;20029;-65
2023/05/11 06:54:03;;;;;;;15.98;2.33;;;;;;;16.45;75.04;101123.94;7363302;19;20011;-66
2023/05/11 06:56:32;;;;;;;11.95;2.20;;;;;;;16.25;75.22;101123.66;7359841;19;20015;-65
2023/05/11 06:59:00;;;;;;;8.55;1.90;;;;;;;16.04;76.02;101121.72;7362900;19;20029;-64
2023/05/11 07:01:28;;;;;;;10.73;2.17;;;;;;;15.94;76.57;101129.13;7360943;19;20029;-64
2023/05/11 07:03:55;;;;;;;11.23;3.20;;;;;;;15.87;77.13;101125.50;7361693;19;20034;-65
2023/05/11 07:06:23;;;;;;;17.73;2.53;;;;;;;15.73;77.59;101119.19;7360015;19;20025;-65
2023/05/11 07:08:50;;;;;;;17.45;2.58;;;;;;;15.69;78.26;101127.69;7362334;19;20026;-65
2023/05/11 07:11:18;;;;;;;11.85;2.35;;;;;;;15.71;78.58;101128.31;7360328;19;20102;-64
2023/05/11 07:13:49;;;;;;;12.65;2.50;;;;;;;15.72;78.70;101128.13;7359200;19;20350;-64
2023/05/11 07:16:17;;;;;;;12.10;2.28;;;;;;;15.76;78.64;101126.78;7361611;19;20019;-64
2023/05/11 07:18:50;;;;;;;11.88;2.28;;;;;;;15.80;77.96;101122.75;7361803;19;20024;-67
2023/05/11 07:21:22;;;;;;;7.30;2.30;;;;;;;15.90;77.85;101130.44;7362312;19;20230;-66
2023/05/11 07:23:50;;;;;;;12.30;2.42;;;;;;;15.96;77.69;101121.78;7361871;19;20486;-65
2023/05/11 07:26:20;;;;;;;9.80;1.92;;;;;;;16.02;77.60;101131.69;7359097;19;20006;-65
2023/05/11 07:28:50;;;;;;;9.32;2.05;;;;;;;16.03;77.10;101125.38;7361758;19;20029;-64
2023/05/11 07:31:18;;;;;;;9.85;2.28;;;;;;;16.05;77.37;101125.19;7355426;19;20018;-65
2023/05/11 07:33:46;;;;;;;12.57;2.67;;;;;;;16.08;77.22;101132.78;7362922;19;20026;-66
2023/05/11 07:36:17;;;;;;;11.60;2.15;;;;;;;16.32;76.64;101129.03;7363067;19;20006;-65
2023/05/11 07:38:49;;;;;;;12.25;1.85;;;;;;;16.80;75.75;101131.16;7363828;19;20363;-65
2023/05/11 07:41:17;;;;;;;10.80;2.30;;;;;;;17.62;74.00;101129.00;7363623;19;20038;-67
2023/05/11 07:43:45;;;;;;;7.10;1.65;;;;;;;18.62;69.11;101142.03;7360246;19;20059;-66
2023/05/11 07:46:12;;;;;;;10.80;1.83;;;;;;;19.10;65.66;101143.63;7360875;19;20018;-65
2023/05/11 07:48:41;;;;;;;10.88;2.72;;;;;;;19.17;63.53;101141.00;7361900;19;20019;-64
2023/05/11 07:51:08;;;;;;;11.27;1.60;;;;;;;18.91;63.92;101141.72;7361161;19;20018;-66
2023/05/11 07:53:35;;;;;;;13.05;1.73;;;;;;;18.89;63.88;101146.47;7360521;19;20014;-65
2023/05/11 07:56:03;;;;;;;6.85;1.50;;;;;;;18.80;64.11;101148.47;7361124;19;20566;-65
2023/05/11 07:58:31;;;;;;;14.10;2.25;;;;;;;19.04;68.05;101151.66;7358969;19;20007;-65
2023/05/11 08:00:58;;;;;;;9.93;1.63;;;;;;;19.34;66.01;101144.94;7357812;19;20018;-64
2023/05/11 08:03:26;;;;;;;8.18;2.65;;;;;;;19.47;65.08;101145.00;7363882;19;20019;-64
2023/05/11 08:05:54;;;;;;;8.18;1.75;;;;;;;19.64;64.31;101140.91;7360517;19;20010;-64
2023/05/11 08:08:23;;;;;;;9.07;1.90;;;;;;;20.07;64.12;101146.66;7363221;19;20347;-66
2023/05/11 08:10:51;;;;;;;6.80;1.73;;;;;;;20.66;60.65;101150.28;7363284;19;20021;-65
2023/05/11 08:13:18;;;;;;;8.15;1.92;;;;;;;20.65;59.27;101153.97;7360013;19;20125;-65
2023/05/11 08:15:46;;;;;;;12.02;1.88;;;;;;;20.33;59.80;101153.03;7359925;19;20034;-65
2023/05/11 08:18:13;;;;;;;9.80;1.77;;;;;;;20.07;60.80;101149.31;7361273;19;20019;-66
2023/05/11 08:20:41;;;;;;;8.85;1.80;;;;;;;19.84;61.66;101148.13;7361802;19;20385;-66
2023/05/11 08:23:09;;;;;;;9.02;1.80;;;;;;;19.67;62.17;101146.84;7360257;19;20015;-66
2023/05/11 08:25:36;;;;;;;7.85;1.77;;;;;;;19.54;62.40;101145.84;7358399;19;21834;-64
2023/05/11 08:28:04;;;;;;;8.38;2.15;;;;;;;19.45;62.24;101149.72;7358529;19;20053;-64
2023/05/11 08:30:36;;;;;;;8.13;1.52;;;;;;;19.36;62.84;101155.41;7359587;19;20035;-65
2023/05/11 08:33:03;;;;;;;8.05;1.65;;;;;;;19.25;62.52;101158.69;7359774;19;20467;-64
2023/05/11 08:35:51;;;;;;;4.60;1.40;;;;;;;18.97;64.89;101154.28;7359290;19;20025;-66
2023/05/11 08:38:18;;;;;;;6.22;1.33;;;;;;;18.67;64.35;101160.91;7359357;19;20337;-64
2023/05/11 08:40:47;;;;;;;12.00;1.98;;;;;;;18.52;64.66;101155.69;7359615;19;20014;-63
2023/05/11 08:43:15;;;;;;;9.15;1.75;;;;;;;18.41;64.90;101158.88;7361548;19;20028;-64
2023/05/11 08:45:46;;;;;;;8.13;1.42;;;;;;;18.32;65.69;101155.56;7355682;19;20029;-64
2023/05/11 08:48:16;;;;;;;8.63;1.73;;;;;;;18.21;65.73;101155.28;7360110;19;20047;-64
2023/05/11 08:50:44;;;;;;;11.48;1.98;;;;;;;18.19;66.64;101155.47;7361528;19;20019;-64
2023/05/11 08:53:13;;;;;;;8.55;1.27;;;;;;;18.19;66.40;101154.63;7359466;19;20014;-65
2023/05/11 08:55:46;;;;;;;8.75;1.13;;;;;;;18.29;65.85;101155.94;7359567;19;20022;-65
2023/05/11 08:58:18;;;;;;;;;;;;;;;18.41;64.15;101169.53;7361817;19;20010;-64
2023/05/11 09:00:49;;;;;;;4.97;1.00;;;;;;;18.52;63.39;101157.53;7354004;19;19922;-64
2023/05/11 09:03:21;;;;;;;7.40;0.80;;;;;;;19.19;62.60;101163.81;7360071;19;20459;-65
2023/05/11 09:05:52;;;;;;;6.18;0.60;;;;;;;20.54;56.87;101158.13;7357961;19;20499;-65
2023/05/11 09:08:31;;;;;;;7.15;1.00;;;;;;;21.93;51.63;101163.56;7358297;19;20026;-64
2023/05/11 09:11:00;;;;;;;4.43;0.95;;;;;;;22.43;49.84;101170.56;7357249;19;20023;-65
2023/05/11 09:13:30;;;;;;;9.13;0.98;;;;;;;22.05;50.88;101164.50;7357297;19;20050;-65
2023/05/11 09:16:04;;;;;;;6.25;1.00;;;;;;;21.31;52.04;101163.38;7355201;19;20046;-65
2023/05/11 09:18:53;;;;;;;10.15;0.90;;;;;;;20.56;55.00;101158.75;7358496;19;20015;-67
2023/05/11 09:21:23;;;;;;;7.32;1.05;;;;;;;20.04;57.09;101157.75;7362118;19;20024;-63
2023/05/11 09:23:54;;;;;;;5.78;1.10;;;;;;;19.62;58.82;101164.31;7360839;19;20010;-65
2023/05/11 09:26:23;;;;;;;8.05;1.17;;;;;;;19.22;60.45;101158.06;7361577;19;20018;-64
2023/05/11 09:28:52;;;;;;;8.23;1.77;;;;;;;18.96;61.26;101152.63;7361189;19;20019;-67
2023/05/11 09:31:35;;;;;;;6.13;1.08;;;;;;;18.74;61.78;101159.91;7359171;19;20150;-64
2023/05/11 09:34:13;;;;;;;7.90;1.17;;;;;;;18.58;63.33;101154.94;7358975;19;20372;-64
2023/05/11 09:36:43;;;;;;;6.95;0.93;;;;;;;18.52;63.69;101163.69;7359960;19;20721;-66
2023/05/11 09:39:12;;;;;;;4.38;0.95;;;;;;;18.48;61.83;101154.44;7359941;19;20030;-64
2023/05/11 09:41:42;;;;;;;9.95;1.63;;;;;;;18.47;61.40;101149.28;7357673;19;21706;-64
2023/05/11 09:44:12;;;;;;;8.45;0.90;;;;;;;18.50;62.33;101157.72;7357837;19;20613;-65
2023/05/11 09:46:42;;;;;;;4.55;0.60;;;;;;;18.59;60.48;101151.22;7356794;19;20090;-64
2023/05/11 09:49:10;;;;;;;6.15;0.80;;;;;;;18.74;59.73;101151.91;7358245;19;20011;-65
2023/05/11 09:51:39;;;;;;;2.63;0.60;;;;;;;18.77;58.23;101148.88;7363456;19;20359;-65
2023/05/11 09:54:18;;;;;;;4.57;0.60;;;;;;;18.75;58.91;101161.56;7367141;19;20014;-65
2023/05/11 09:56:50;;;;;;;7.68;2.17;;;;;;;18.72;60.04;101159.31;7363316;19;20699;-65
2023/05/11 09:59:36;;;;;;;9.23;2.65;;;;;;;18.68;59.30;101160.72;7363974;19;20363;-64
2023/05/11 10:02:25;;;;;;;10.70;1.65;;;;;;;18.61;58.89;101161.69;7364239;19;21004;-65
2023/05/11 10:04:54;;;;;;;5.22;0.73;;;;;;;18.52;59.67;101154.84;7364570;19;20019;-65
2023/05/11 10:07:28;;;;;;;2.70;0.50;;;;;;;18.44;59.06;101155.03;7365584;19;21564;-64
2023/05/11 10:09:58;;;;;;;4.43;0.45;;;;;;;18.41;58.52;101150.06;7366879;19;20089;-65
2023/05/11 10:12:26;;;;;;;3.78;0.55;;;;;;;18.37;58.55;101144.31;7366540;19;20014;-64
2023/05/11 10:15:00;;;;;;;5.35;0.60;;;;;;;18.33;59.44;101145.72;7363171;19;20018;-65
2023/05/11 10:17:29;;;;;;;4.28;0.60;;;;;;;18.32;58.78;101147.56;7366041;19;20028;-64
2023/05/11 10:19:58;;;;;;;4.35;0.68;;;;;;;18.36;60.21;101148.00;7360919;19;20019;-64
2023/05/11 10:22:30;;;;;;;11.55;3.05;;;;;;;18.37;60.02;101141.66;7364062;19;20022;-64
2023/05/11 10:24:58;;;;;;;;;;;;;;;18.41;60.77;101147.41;7364593;19;20019;-65
2023/05/11 10:27:28;;;;;;;5.80;0.70;;;;;;;18.41;60.85;101142.06;7367133;19;20035;-65
2023/05/11 10:29:58;;;;;;;4.40;0.52;;;;;;;18.41;59.77;101142.06;7361774;19;20007;-65
2023/05/11 10:32:26;;;;;;;4.03;1.02;;;;;;;18.41;58.92;101144.75;7367676;19;20727;-65
2023/05/11 10:35:03;;;;;;;4.80;0.50;;;;;;;18.42;58.51;101139.22;7361270;19;20057;-64
2023/05/11 10:37:45;;;;;;;2.90;0.40;;;;;;;18.37;58.42;101142.47;7361289;19;20010;-64
2023/05/11 10:40:13;;;;;;;3.58;0.30;;;;;;;18.38;57.40;101137.97;7365230;19;20022;-65
2023/05/11 10:42:50;;;;;;;13.63;1.63;;;;;;;18.40;57.67;101143.91;7366547;19;20014;-65
2023/05/11 10:45:25;;;;;;;4.88;0.40;;;;;;;18.43;57.31;101153.38;7358914;19;20027;-66
2023/05/11 10:48:02;;;;;;;5.22;0.50;;;;;;;18.45;59.24;101143.31;7363902;19;20014;-65
2023/05/11 10:50:42;;;;;;;3.42;0.40;;;;;;;18.46;57.15;101142.31;7358520;19;20713;-65
2023/05/11 10:53:19;;;;;;;6.03;0.75;;;;;;;18.49;57.12;101142.72;7365248;19;20049;-65
2023/05/11 10:56:08;;;;;;;6.15;0.77;;;;;;;18.52;56.35;101136.19;7363819;19;20337;-64
2023/05/11 10:58:51;;;;;;;3.92;0.60;;;;;;;18.55;57.16;101143.81;7333213;19;20027;-65
2023/05/11 11:01:41;;;;;;;6.63;0.70;;;;;;;18.57;59.12;101139.94;7347763;19;20019;-64
2023/05/11 11:04:22;;;;;;;4.60;0.85;;;;;;;18.57;61.13;101137.28;7346769;19;20976;-65
2023/05/11 11:07:03;;;;;;;4.95;0.75;;;;;;;18.52;61.76;101137.03;7361710;19;20018;-65
2023/05/11 11:09:52;;;;;;;3.50;0.60;;;;;;;18.45;62.49;101136.16;7354065;19;20026;-64
2023/05/11 11:12:20;;;;;;;5.45;0.82;;;;;;;18.38;63.01;101137.97;7353140;19;20048;-65
2023/05/11 11:14:57;;;;;;;4.45;0.90;;;;;;;18.30;63.05;101136.28;7347149;19;20051;-64
2023/05/11 11:17:31;;;;;;;4.72;0.70;;;;;;;18.22;63.75;101143.59;7357350;19;20014;-65
2023/05/11 11:20:01;;;;;;;5.13;0.80;;;;;;;18.16;63.82;101142.53;7354450;19;21202;-64
2023/05/11 11:22:39;;;;;;;6.85;0.80;;;;;;;18.11;64.36;101142.28;7357686;19;20011;-65
2023/05/11 11:25:34;;;;;;;3.53;0.95;;;;;;;18.05;63.57;101137.75;7353482;19;20104;-65
2023/05/11 11:28:02;;;;;;;6.50;0.77;;;;;;;17.95;62.99;101132.75;7356526;19;20027;-66
2023/05/11 11:30:29;;;;;;;8.00;1.00;;;;;;;17.89;63.86;101122.88;7353652;19;20018;-65
2023/05/11 11:33:07;;;;;;;5.35;0.70;;;;;;;17.88;64.07;101123.06;7354507;19;20015;-66
2023/05/11 11:35:40;;;;;;;7.57;1.20;;;;;;;17.86;65.12;101131.25;7356202;19;20015;-65
2023/05/11 11:38:13;;;;;;;7.82;1.05;;;;;;;17.86;64.54;101127.78;7354855;19;20007;-65